LOS weather

Murtala Muhammed International Airport
Lagos, Lagos, Nigeria

Public forecast

Using degrees Celsius for public forecast. Weather courtesy of forecast.io.

Current aviation weather report (METAR) for Murtala Muhammed International Airport

Retrieved 2019/10/14 23:00 UTC (2 hours ago):

DNMM 142300Z 25003KT 9999 FEW010 26/25 Q1013 NOSIG

Aviation forecast (TAF) for Murtala Muhammed International Airport

Retrieved 2019-10-15 00:36 UTC (18 minutes ago):

TAF TAF DNMM 142300Z 1500/1606 VRB02KT 8000 SCT009 PROB40 1500/1503 TS SCT010 FEW020CB TEMPO 1504/1508 5000 -TSRA BKN008 FEW018CB BECMG 1508/1510 24010KT BKN012 FEW020CB